createdAt,value
2023-03-17T00:00:18.958Z,184.88
2023-03-17T00:56:29.911Z,25.00
2023-03-17T01:00:30.840Z,25.00
2023-03-17T01:04:30.741Z,0.00
2023-03-17T01:08:30.938Z,0.00
2023-03-17T01:32:31.296Z,25.00
2023-03-17T01:36:31.288Z,28.03
2023-03-17T01:40:31.929Z,30.11
2023-03-17T01:44:31.369Z,27.34
2023-03-17T01:48:31.367Z,28.05
2023-03-17T01:52:31.347Z,32.51
2023-03-17T01:56:31.357Z,29.25
2023-03-17T02:00:31.878Z,29.77
2023-03-17T02:04:31.483Z,33.85
2023-03-17T02:08:31.409Z,36.88
2023-03-17T02:12:31.439Z,27.26
2023-03-17T02:16:31.500Z,28.56
2023-03-17T02:20:31.979Z,28.03
2023-03-17T02:24:31.481Z,32.34
2023-03-17T02:28:31.496Z,32.15
2023-03-17T02:32:31.567Z,28.65
2023-03-17T02:36:31.585Z,29.68
2023-03-17T02:44:31.542Z,27.41
2023-03-17T02:48:31.539Z,24.40
2023-03-17T02:52:31.479Z,31.07
2023-03-17T02:56:31.451Z,27.26
2023-03-17T03:00:31.841Z,27.82
2023-03-17T03:04:31.396Z,28.03
2023-03-17T03:08:31.339Z,27.32
2023-03-17T03:12:31.305Z,29.74
2023-03-17T03:16:31.258Z,28.91
2023-03-17T03:20:31.674Z,28.98
2023-03-17T03:24:31.187Z,31.40
2023-03-17T03:28:31.150Z,29.17
2023-03-17T03:32:31.136Z,28.08
2023-03-17T03:36:31.106Z,26.80
2023-03-17T03:40:31.522Z,31.49
2023-03-17T03:44:31.013Z,28.29
2023-03-17T03:48:30.968Z,27.40
2023-03-17T03:52:30.962Z,29.43
2023-03-17T03:56:30.957Z,29.93
2023-03-17T04:00:31.138Z,28.55
2023-03-17T04:04:30.874Z,27.01
2023-03-17T04:08:30.902Z,30.66
2023-03-17T04:12:30.874Z,28.82
2023-03-17T04:16:30.964Z,31.82
2023-03-17T04:20:31.113Z,33.44
2023-03-17T04:24:30.967Z,29.14
2023-03-17T04:28:30.971Z,33.63
2023-03-17T04:32:31.003Z,30.65
2023-03-17T04:36:31.009Z,32.82
2023-03-17T04:40:31.370Z,29.10
2023-03-17T04:44:31.024Z,34.40
2023-03-17T04:48:31.036Z,31.66
2023-03-17T04:52:31.035Z,29.65
2023-03-17T04:56:32.010Z,31.43
2023-03-17T05:00:31.284Z,28.02
2023-03-17T05:04:32.351Z,26.64
2023-03-17T05:08:31.122Z,27.88
2023-03-17T05:12:31.159Z,26.85
2023-03-17T05:16:31.225Z,30.08
2023-03-17T05:20:31.478Z,28.35
2023-03-17T05:24:31.159Z,29.65
2023-03-17T05:28:31.203Z,27.22
2023-03-17T05:32:31.640Z,29.32
2023-03-17T05:36:31.222Z,28.54
2023-03-17T05:40:31.610Z,26.96
2023-03-17T05:44:31.298Z,26.69
2023-03-17T05:48:31.289Z,26.63
2023-03-17T05:52:31.303Z,29.63
2023-03-17T05:56:31.314Z,27.78
2023-03-17T06:00:31.916Z,30.20
2023-03-17T06:04:31.362Z,31.37
2023-03-17T06:08:31.508Z,32.80
2023-03-17T06:12:30.376Z,35.26
2023-03-17T06:16:31.411Z,33.60
2023-03-17T06:20:31.376Z,32.84
2023-03-17T06:24:31.504Z,37.97
2023-03-17T06:28:31.504Z,41.92
2023-03-17T06:32:31.585Z,55.85
2023-03-17T06:36:31.321Z,68.80
2023-03-17T06:40:31.512Z,135.54
2023-03-17T06:44:31.513Z,125.95
2023-03-17T06:48:31.546Z,123.57
2023-03-17T06:52:32.018Z,102.46
2023-03-17T06:56:31.668Z,94.52
2023-03-17T07:00:32.139Z,99.81
2023-03-17T07:04:32.118Z,88.17
2023-03-17T07:08:32.018Z,93.72
2023-03-17T07:12:31.821Z,79.12
2023-03-17T07:16:32.052Z,76.26
2023-03-17T07:20:32.139Z,74.27
2023-03-17T07:24:32.068Z,74.61
2023-03-17T07:28:32.523Z,71.15
2023-03-17T07:32:32.132Z,68.61
2023-03-17T07:36:32.565Z,71.70
2023-03-17T07:40:34.879Z,62.47
2023-03-17T07:44:32.536Z,65.27
2023-03-17T07:48:32.533Z,61.91
2023-03-17T07:52:32.921Z,64.92
2023-03-17T07:56:32.037Z,66.30
2023-03-17T08:00:32.391Z,67.68
2023-03-17T08:04:32.035Z,65.45
2023-03-17T08:08:32.255Z,65.88
2023-03-17T08:12:32.071Z,66.77
2023-03-17T08:16:32.096Z,64.98
2023-03-17T08:20:31.482Z,68.88
2023-03-17T08:24:32.070Z,67.88
2023-03-17T08:28:32.046Z,70.25
2023-03-17T08:32:33.599Z,71.81
2023-03-17T08:36:32.079Z,76.08
2023-03-17T08:40:32.244Z,82.78
2023-03-17T08:44:32.081Z,85.90
2023-03-17T08:48:32.058Z,87.09
2023-03-17T08:52:32.749Z,88.77
2023-03-17T08:56:32.103Z,96.07
2023-03-17T09:00:32.377Z,115.42
2023-03-17T09:04:33.089Z,119.77
2023-03-17T09:08:32.065Z,129.78
2023-03-17T09:12:34.115Z,132.03
2023-03-17T09:16:31.626Z,132.30
2023-03-17T09:20:31.867Z,127.91
2023-03-17T09:24:31.607Z,129.62
2023-03-17T09:28:31.592Z,131.11
2023-03-17T09:32:31.427Z,131.24
2023-03-17T09:36:31.582Z,131.73
2023-03-17T09:40:31.977Z,128.49
2023-03-17T09:44:31.596Z,127.72
2023-03-17T09:48:31.238Z,126.94
2023-03-17T09:52:31.576Z,127.96
2023-03-17T09:56:32.074Z,130.71
2023-03-17T10:04:31.103Z,132.18
2023-03-17T10:08:32.352Z,132.10
2023-03-17T10:12:31.200Z,143.64
2023-03-17T10:16:31.267Z,148.13
2023-03-17T10:20:31.592Z,148.70
2023-03-17T10:24:31.589Z,142.64
2023-03-17T10:28:31.592Z,148.25
2023-03-17T10:32:31.626Z,156.70
2023-03-17T10:36:31.599Z,165.02
2023-03-17T10:40:31.971Z,175.11
2023-03-17T10:44:31.102Z,179.84
2023-03-17T10:48:31.171Z,185.92
2023-03-17T10:52:31.605Z,207.13
2023-03-17T10:56:32.100Z,218.28
2023-03-17T11:04:31.649Z,225.99
2023-03-17T11:08:31.642Z,230.84
2023-03-17T11:12:31.416Z,239.90
2023-03-17T11:16:31.730Z,236.38
2023-03-17T11:20:31.818Z,240.54
2023-03-17T11:24:32.227Z,240.85
2023-03-17T11:28:31.635Z,241.63
2023-03-17T11:32:31.736Z,245.41
2023-03-17T11:36:31.513Z,238.77
2023-03-17T11:40:32.143Z,241.67
2023-03-17T11:44:31.649Z,231.41
2023-03-17T11:48:31.653Z,236.45
2023-03-17T11:52:31.697Z,231.50
2023-03-17T11:56:31.647Z,232.62
2023-03-17T12:00:31.950Z,234.95
2023-03-17T12:04:31.394Z,235.92
2023-03-17T12:08:31.675Z,231.87
2023-03-17T12:12:31.397Z,223.33
2023-03-17T12:16:31.646Z,231.08
2023-03-17T12:20:31.975Z,220.13
2023-03-17T12:24:31.335Z,224.00
2023-03-17T12:28:31.649Z,227.79
2023-03-17T12:32:31.670Z,220.96
2023-03-17T12:36:31.655Z,218.21
2023-03-17T12:40:32.178Z,218.49
2023-03-17T12:44:31.260Z,221.45
2023-03-17T12:48:31.308Z,216.05
2023-03-17T12:52:31.276Z,214.87
2023-03-17T12:56:31.705Z,205.22
2023-03-17T13:00:31.204Z,273.58
2023-03-17T13:04:31.662Z,214.65
2023-03-17T13:12:31.208Z,220.41
2023-03-17T13:16:31.209Z,215.33
2023-03-17T13:20:31.043Z,206.18
2023-03-17T13:24:30.988Z,200.33
2023-03-17T13:28:30.976Z,206.26
2023-03-17T13:32:31.200Z,199.54
2023-03-17T13:36:30.881Z,191.08
2023-03-17T13:40:31.466Z,194.76
2023-03-17T13:44:30.885Z,194.29
2023-03-17T13:48:31.200Z,189.87
2023-03-17T13:52:31.699Z,188.25
2023-03-17T13:56:34.731Z,195.10
2023-03-17T14:00:32.291Z,188.03
2023-03-17T14:04:33.532Z,191.37
2023-03-17T14:08:31.706Z,189.09
2023-03-17T14:12:31.704Z,192.65
2023-03-17T14:16:31.923Z,185.53
2023-03-17T14:20:31.719Z,191.93
2023-03-17T14:24:31.243Z,187.81
2023-03-17T14:28:31.711Z,185.65
2023-03-17T14:32:31.558Z,181.30
2023-03-17T14:36:31.712Z,186.34
2023-03-17T14:40:31.859Z,185.95
2023-03-17T14:44:32.035Z,185.34
2023-03-17T14:48:32.193Z,186.91
2023-03-17T14:52:32.332Z,185.80
2023-03-17T14:56:32.421Z,180.55
2023-03-17T15:00:32.503Z,178.02
2023-03-17T15:04:32.781Z,171.57
2023-03-17T15:08:34.527Z,167.62
2023-03-17T15:12:32.625Z,169.21
2023-03-17T15:16:32.601Z,170.90
2023-03-17T15:20:33.415Z,170.23
2023-03-17T15:24:32.734Z,169.93
2023-03-17T15:28:32.750Z,174.05
2023-03-17T15:32:32.805Z,169.42
2023-03-17T15:36:33.506Z,161.95
2023-03-17T15:40:33.361Z,163.96
2023-03-17T15:44:33.026Z,168.44
2023-03-17T15:48:33.252Z,167.23
2023-03-17T15:52:33.789Z,167.23
2023-03-17T15:56:33.376Z,164.29
2023-03-17T16:00:33.878Z,161.44
2023-03-17T16:04:34.297Z,157.10
2023-03-17T16:08:33.443Z,160.66
2023-03-17T16:12:33.750Z,154.25
2023-03-17T16:16:33.572Z,154.86
2023-03-17T16:20:34.114Z,156.54
2023-03-17T16:24:33.673Z,148.84
2023-03-17T16:28:33.731Z,155.76
2023-03-17T16:32:34.299Z,154.61
2023-03-17T16:36:33.977Z,153.87
2023-03-17T16:40:34.254Z,152.48
2023-03-17T16:44:36.859Z,152.87
2023-03-17T16:48:34.093Z,152.86
2023-03-17T16:52:34.070Z,152.77
2023-03-17T16:56:34.143Z,150.86
2023-03-17T17:00:34.258Z,149.17
2023-03-17T17:04:33.955Z,150.84
2023-03-17T17:08:33.925Z,149.14
2023-03-17T17:12:33.904Z,148.27
2023-03-17T17:16:34.339Z,155.42
2023-03-17T17:20:34.779Z,149.54
2023-03-17T17:24:33.777Z,146.66
2023-03-17T17:28:33.769Z,147.95
2023-03-17T17:32:33.730Z,146.10
2023-03-17T17:36:33.787Z,143.80
2023-03-17T17:40:34.108Z,143.91
2023-03-17T17:44:33.626Z,142.13
2023-03-17T17:48:33.562Z,142.97
2023-03-17T17:52:33.531Z,141.05
2023-03-17T17:56:33.491Z,139.96
2023-03-17T18:00:33.746Z,137.71
2023-03-17T18:04:33.613Z,137.05
2023-03-17T18:08:33.641Z,137.81
2023-03-17T18:12:33.738Z,135.38
2023-03-17T18:16:33.871Z,134.92
2023-03-17T18:20:34.762Z,134.29
2023-03-17T18:24:33.934Z,131.88
2023-03-17T18:28:34.069Z,131.24
2023-03-17T18:32:34.230Z,129.43
2023-03-17T18:36:34.175Z,128.09
2023-03-17T18:40:34.720Z,126.15
2023-03-17T18:44:34.399Z,125.31
2023-03-17T18:48:34.537Z,126.39
2023-03-17T18:52:34.644Z,122.68
2023-03-17T18:56:34.810Z,122.42
2023-03-17T19:00:34.892Z,120.88
2023-03-17T19:04:35.039Z,122.61
2023-03-17T19:08:35.097Z,123.09
2023-03-17T19:12:35.826Z,120.94
2023-03-17T19:16:35.351Z,121.43
2023-03-17T19:20:35.314Z,125.08
2023-03-17T19:24:35.351Z,119.12
2023-03-17T19:28:35.380Z,119.01
2023-03-17T19:32:35.447Z,116.04
2023-03-17T19:36:35.516Z,113.21
2023-03-17T19:40:36.333Z,114.72
2023-03-17T19:44:35.645Z,113.89
2023-03-17T19:48:35.701Z,112.55
2023-03-17T19:52:35.890Z,112.78
2023-03-17T19:56:35.839Z,114.40
2023-03-17T20:00:35.902Z,112.73
2023-03-17T20:04:36.431Z,113.08
2023-03-17T20:08:42.854Z,108.94
2023-03-17T20:12:35.980Z,110.43
2023-03-17T20:16:35.943Z,107.33
2023-03-17T20:20:35.901Z,107.81
2023-03-17T20:24:35.896Z,107.19
2023-03-17T20:28:35.852Z,104.66
2023-03-17T20:32:35.846Z,106.06
2023-03-17T20:36:35.765Z,104.49
2023-03-17T20:40:35.787Z,103.43
2023-03-17T20:44:35.842Z,98.68
2023-03-17T20:48:35.899Z,97.54
2023-03-17T20:52:35.952Z,96.97
2023-03-17T20:56:36.038Z,93.56
2023-03-17T21:00:36.065Z,88.91
2023-03-17T21:04:36.109Z,87.46
2023-03-17T21:08:36.157Z,87.13
2023-03-17T21:12:36.241Z,85.88
2023-03-17T21:16:36.346Z,84.97
2023-03-17T21:20:36.313Z,85.63
2023-03-17T21:24:36.367Z,86.78
2023-03-17T21:28:36.448Z,81.91
2023-03-17T21:32:36.680Z,80.74
2023-03-17T21:36:36.526Z,78.52
2023-03-17T21:40:36.553Z,73.23
2023-03-17T21:44:36.598Z,70.67
2023-03-17T21:48:36.606Z,70.93
2023-03-17T21:52:36.878Z,66.33
2023-03-17T21:56:36.685Z,63.40
2023-03-17T22:00:45.006Z,64.18
2023-03-17T22:04:36.707Z,64.56
2023-03-17T22:08:36.655Z,62.66
2023-03-17T22:12:36.616Z,62.03
2023-03-17T22:16:36.642Z,55.87
2023-03-17T22:20:36.550Z,50.98
2023-03-17T22:24:37.385Z,47.82
2023-03-17T22:28:36.473Z,41.91
2023-03-17T22:32:36.536Z,45.12
2023-03-17T22:36:36.413Z,46.05
2023-03-17T22:40:36.373Z,43.41
2023-03-17T22:44:36.340Z,41.79
2023-03-17T22:48:36.424Z,45.12
2023-03-17T22:52:36.406Z,41.20
2023-03-17T22:56:36.368Z,41.81
2023-03-17T23:00:36.429Z,42.26
2023-03-17T23:04:36.530Z,40.07
2023-03-17T23:08:36.583Z,31.77
2023-03-17T23:12:36.601Z,29.28
2023-03-17T23:16:36.690Z,34.49
2023-03-17T23:20:36.778Z,26.06
2023-03-17T23:24:36.734Z,25.08
2023-03-17T23:28:39.416Z,26.03
2023-03-17T23:32:36.795Z,28.77
2023-03-17T23:36:36.740Z,28.16
2023-03-17T23:40:36.683Z,29.48
2023-03-17T23:44:36.640Z,30.41
2023-03-17T23:48:43.407Z,31.39
2023-03-17T23:52:36.584Z,35.26
2023-03-17T23:56:36.524Z,39.94
